createdAt,value
2022-10-28T00:06:59.938Z,1006.61
2022-10-28T00:17:06.167Z,1006.43
2022-10-28T00:27:13.521Z,1006.37
2022-10-28T00:37:18.894Z,1006.40
2022-10-28T00:47:27.180Z,1006.41
2022-10-28T00:57:33.241Z,1006.28
2022-10-28T01:07:39.680Z,1006.28
2022-10-28T01:17:45.942Z,1006.27
2022-10-28T01:27:52.012Z,1006.17
2022-10-28T01:37:58.137Z,1006.11
2022-10-28T01:48:04.403Z,1006.15
2022-10-28T01:58:10.498Z,1006.18
2022-10-28T02:08:16.384Z,1006.15
2022-10-28T02:18:22.647Z,1006.11
2022-10-28T02:28:28.738Z,1006.00
2022-10-28T02:38:35.193Z,1005.94
2022-10-28T02:48:41.624Z,1005.82
2022-10-28T02:58:48.091Z,1005.73
2022-10-28T03:08:53.906Z,1005.86
2022-10-28T03:18:59.671Z,1005.85
2022-10-28T03:29:06.062Z,1005.80
2022-10-28T03:39:12.284Z,1005.75
2022-10-28T03:49:18.786Z,1005.77
2022-10-28T03:59:25.080Z,1005.75
2022-10-28T04:09:31.538Z,1005.76
2022-10-28T04:19:37.643Z,1005.81
2022-10-28T04:29:43.916Z,1005.85
2022-10-28T04:39:50.169Z,1005.81
2022-10-28T04:49:56.209Z,1005.77
2022-10-28T05:00:02.521Z,1005.81
2022-10-28T05:10:08.737Z,1005.82
2022-10-28T05:20:14.830Z,1005.89
2022-10-28T05:30:21.131Z,1005.93
2022-10-28T05:40:27.324Z,1005.93
2022-10-28T05:50:33.154Z,1006.08
2022-10-28T06:00:39.177Z,1006.04
2022-10-28T06:10:45.461Z,1006.16
2022-10-28T06:20:50.259Z,1006.22
2022-10-28T06:30:56.343Z,1006.21
2022-10-28T06:41:02.907Z,1006.28
2022-10-28T06:51:10.300Z,1006.30
2022-10-28T07:01:16.278Z,1006.23
2022-10-28T07:11:21.978Z,1006.29
2022-10-28T07:21:27.778Z,1006.36
2022-10-28T07:31:33.606Z,1006.27
2022-10-28T07:41:39.745Z,1006.11
2022-10-28T07:51:45.511Z,1006.00
2022-10-28T08:01:51.297Z,1005.88
2022-10-28T08:11:57.190Z,1005.88
2022-10-28T08:22:02.913Z,1005.22
2022-10-28T08:32:08.515Z,1004.75
2022-10-28T08:42:14.149Z,1004.98
2022-10-28T08:52:19.769Z,1005.19
2022-10-28T09:02:25.419Z,1005.18
2022-10-28T09:12:31.235Z,1005.21
2022-10-28T09:22:36.679Z,1005.27
2022-10-28T09:32:42.711Z,1005.32
2022-10-28T09:42:48.771Z,1005.26
2022-10-28T09:52:54.510Z,1005.24
2022-10-28T10:03:00.365Z,1005.21
2022-10-28T10:13:06.322Z,1005.14
2022-10-28T10:23:12.124Z,1005.06
2022-10-28T10:33:17.500Z,1004.97
2022-10-28T10:43:23.316Z,1004.81
2022-10-28T10:53:29.569Z,1004.71
2022-10-28T11:03:37.346Z,1004.63
2022-10-28T11:13:46.036Z,1004.56
2022-10-28T11:23:54.259Z,1004.58
2022-10-28T11:34:00.061Z,1004.53
2022-10-28T11:44:07.984Z,1004.66
2022-10-28T11:54:13.258Z,1004.61
2022-10-28T12:04:20.983Z,1004.66
2022-10-28T12:14:26.158Z,1004.46
2022-10-28T12:24:34.205Z,1004.44
2022-10-28T12:34:40.472Z,1004.46
2022-10-28T12:44:51.351Z,1004.38
2022-10-28T12:54:58.912Z,1004.27
2022-10-28T13:05:06.859Z,1004.22
2022-10-28T13:15:12.662Z,1004.07
2022-10-28T13:25:20.645Z,1004.09
2022-10-28T13:35:26.365Z,1004.00
2022-10-28T13:45:32.645Z,1004.03
2022-10-28T13:55:38.718Z,1003.96
2022-10-28T14:05:46.123Z,1003.92
2022-10-28T14:15:52.275Z,1003.87
2022-10-28T14:25:59.716Z,1003.84
2022-10-28T14:36:05.163Z,1003.81
2022-10-28T14:46:12.215Z,1003.86
2022-10-28T14:56:17.922Z,1003.84
2022-10-28T15:06:25.452Z,1003.75
2022-10-28T15:16:31.431Z,1003.64
2022-10-28T15:26:39.223Z,1003.77
2022-10-28T15:36:44.612Z,1003.76
2022-10-28T15:46:52.985Z,1003.73
2022-10-28T15:56:59.430Z,1003.77
2022-10-28T16:07:06.886Z,1003.82
2022-10-28T16:17:12.349Z,1003.79
2022-10-28T16:27:20.235Z,1003.83
2022-10-28T16:37:26.175Z,1003.91
2022-10-28T16:47:34.194Z,1003.95
2022-10-28T16:57:40.083Z,1004.03
2022-10-28T17:07:45.716Z,1003.89
2022-10-28T17:17:53.251Z,1003.86
2022-10-28T17:27:59.225Z,1003.94
2022-10-28T17:38:06.384Z,1004.02
2022-10-28T17:48:11.906Z,1004.03
2022-10-28T17:58:19.505Z,1004.11
2022-10-28T18:08:25.160Z,1004.15
2022-10-28T18:18:35.013Z,1004.28
2022-10-28T18:28:43.486Z,1004.23
2022-10-28T18:38:50.933Z,1004.24
2022-10-28T18:48:56.790Z,1004.21
2022-10-28T18:59:04.278Z,1004.30
2022-10-28T19:09:09.875Z,1004.28
2022-10-28T19:19:17.599Z,1004.31
2022-10-28T19:29:23.325Z,1004.30
2022-10-28T19:39:31.184Z,1004.41
2022-10-28T19:49:40.656Z,1004.53
2022-10-28T19:59:49.479Z,1004.60
2022-10-28T20:09:55.178Z,1004.70
2022-10-28T20:20:03.055Z,1004.82
2022-10-28T20:30:08.708Z,1004.86
2022-10-28T20:40:16.526Z,1004.90
2022-10-28T20:50:22.039Z,1004.89
2022-10-28T21:00:28.314Z,1005.00
2022-10-28T21:10:34.633Z,1004.91
2022-10-28T21:20:42.251Z,1005.02
2022-10-28T21:30:48.114Z,1005.13
2022-10-28T21:40:55.574Z,1005.08
2022-10-28T21:51:01.736Z,1005.19
2022-10-28T22:01:09.170Z,1005.30
2022-10-28T22:11:14.923Z,1005.42
2022-10-28T22:21:22.565Z,1005.50
2022-10-28T22:31:28.284Z,1005.50
2022-10-28T22:41:36.225Z,1005.51
2022-10-28T22:51:42.016Z,1005.48
2022-10-28T23:01:49.700Z,1005.56
2022-10-28T23:11:55.329Z,1005.61
2022-10-28T23:22:02.997Z,1005.63
2022-10-28T23:32:09.358Z,1005.70
2022-10-28T23:42:15.401Z,1005.74
2022-10-28T23:52:21.117Z,1005.72
